Time;durP1;ratioP1;P1;durP2;ratioP2;P2;SDS_P1;SDS_P2;PMS_P1;PMS_P2;Temp;Humidity;BMP_temperature;BMP_pressure;BME280_temperature;BME280_humidity;BME280_pressure;Samples;Min_cycle;Max_cycle;Signal;HPM_P1;HPM_P2
2022/11/10 00:01:59;;;;;;;;;;;;;;;10.24;100.00;96865.47;5069002;28;19961;-75
2022/11/10 00:04:25;;;;;;;;;;;;;;;10.22;100.00;96867.50;5066307;28;20048;-75
2022/11/10 00:06:51;;;;;;;;;;;;;;;10.20;100.00;96873.97;5066575;28;20003;-75
2022/11/10 00:09:16;;;;;;;;;;;;;;;10.16;100.00;96879.63;5063804;28;20052;-74
2022/11/10 00:11:42;;;;;;;;;;;;;;;10.15;100.00;96887.69;5068714;28;20371;-74
2022/11/10 00:17:03;;;;;;;;;;;;;;;10.09;100.00;96889.28;5068996;28;19955;-74
2022/11/10 00:19:29;;;;;;;;;;;;;;;10.08;100.00;96894.72;5070339;28;19960;-75
2022/11/10 00:21:55;;;;;;;;;;;;;;;10.06;100.00;96891.53;5067437;28;19958;-74
2022/11/10 00:24:22;;;;;;;;;;;;;;;10.03;100.00;96891.94;5062203;28;20052;-74
2022/11/10 00:26:48;;;;;;;;;;;;;;;10.00;100.00;96894.97;5065334;28;20317;-74
2022/11/10 00:29:14;;;;;;;;;;;;;;;9.96;100.00;96890.13;5065739;28;19959;-74
2022/11/10 00:31:40;;;;;;;;;;;;;;;9.92;100.00;96896.75;5067015;28;20015;-74
2022/11/10 00:34:07;;;;;;;;;;;;;;;9.89;100.00;96901.59;5065129;28;19988;-74
2022/11/10 00:36:36;;;;;;;;;;;;;;;9.85;100.00;96906.44;5071652;28;19954;-74
2022/11/10 00:39:02;;;;;;;;;;;;;;;9.82;100.00;96906.84;5069508;28;19966;-74
2022/11/10 00:41:27;;;;;;;;;;;;;;;9.79;100.00;96907.25;5062409;28;19947;-74
2022/11/10 00:43:53;;;;;;;;;;;;;;;9.76;100.00;96918.13;5067632;28;20404;-74
2022/11/10 00:46:19;;;;;;;;;;;;;;;9.74;100.00;96918.34;5071342;28;20030;-74
2022/11/10 00:48:45;;;;;;;;;;;;;;;9.71;100.00;96916.09;5056561;28;19950;-74
2022/11/10 00:51:16;;;;;;;;;;;;;;;9.70;100.00;96922.38;5067246;28;19955;-73
2022/11/10 00:53:42;;;;;;;;;;;;;;;9.67;100.00;96920.13;5059495;28;20040;-74
2022/11/10 00:56:08;;;;;;;;;;;;;;;9.66;100.00;96917.72;5069254;28;20013;-73
2022/11/10 00:58:34;;;;;;;;;;;;;;;9.63;100.00;96918.91;5067740;28;20065;-74
2022/11/10 01:01:04;;;;;;;;;;;;;;;9.61;100.00;96915.69;5063027;28;19950;-73
2022/11/10 01:03:30;;;;;;;;;;;;;;;9.57;100.00;96926.78;5066106;28;19981;-74
2022/11/10 01:05:56;;;;;;;;;;;;;;;9.53;100.00;96924.56;5070646;28;19960;-74
2022/11/10 01:08:22;;;;;;;;;;;;;;;9.51;100.00;96926.56;5066226;28;19992;-74
2022/11/10 01:10:48;;;;;;;;;;;;;;;9.49;100.00;96933.00;5067998;28;19968;-74
2022/11/10 01:13:14;;;;;;;;;;;;;;;9.47;100.00;96941.06;5066176;28;19972;-74
2022/11/10 01:15:40;;;;;;;;;;;;;;;9.45;100.00;96939.63;5066831;28;20365;-73
2022/11/10 01:18:07;;;;;;;;;;;;;;;9.43;100.00;96941.63;5064366;28;19969;-74
2022/11/10 01:20:33;;;;;;;;;;;;;;;9.39;100.00;96943.88;5064448;28;19966;-74
2022/11/10 01:22:59;;;;;;;;;;;;;;;9.35;100.00;96946.06;5067230;28;19960;-73
2022/11/10 01:25:25;;;;;;;;;;;;;;;9.31;100.00;96944.03;5067139;28;19998;-74
2022/11/10 01:27:51;;;;;;;;;;;;;;;9.25;100.00;96950.06;5061862;28;20431;-74
2022/11/10 01:30:18;;;;;;;;;;;;;;;9.20;100.00;96950.66;5066252;28;19967;-74
2022/11/10 01:32:44;;;;;;;;;;;;;;;9.16;100.00;96953.88;5065760;28;19968;-73
2022/11/10 01:35:10;;;;;;;;;;;;;;;9.10;100.00;96952.81;5069201;28;19980;-74
2022/11/10 01:37:36;;;;;;;;;;;;;;;9.07;100.00;96958.44;5067650;28;19952;-74
2022/11/10 01:40:03;;;;;;;;;;;;;;;9.01;100.00;96962.66;5064767;28;19963;-74
2022/11/10 01:42:44;;;;;;;;;;;;;;;8.94;100.00;96970.47;5064591;28;19958;-74
2022/11/10 01:45:33;;;;;;;;;;;;;;;8.93;100.00;96973.28;5047100;28;19950;-74
2022/11/10 01:48:02;;;;;;;;;;;;;;;8.90;100.00;96968.44;5066180;28;19948;-74
2022/11/10 01:50:31;;;;;;;;;;;;;;;8.85;100.00;96968.22;5061246;28;19954;-74
2022/11/10 01:52:59;;;;;;;;;;;;;;;8.81;100.00;96975.63;5069482;28;19949;-74
2022/11/10 01:55:26;;;;;;;;;;;;;;;8.76;100.00;96975.41;5064949;28;19960;-74
2022/11/10 01:57:52;;;;;;;;;;;;;;;8.73;100.00;96992.31;5068532;28;19956;-74
2022/11/10 02:00:18;;;;;;;;;;;;;;;8.70;100.00;97003.13;5060717;28;19969;-74
2022/11/10 02:03:07;;;;;;;;;;;;;;;8.68;100.00;96991.25;5064594;28;20441;-74
2022/11/10 02:05:35;;;;;;;;;;;;;;;8.68;100.00;96996.50;5007208;28;19961;-74
2022/11/10 02:08:01;;;;;;;;;;;;;;;8.66;100.00;96994.06;5061519;28;19991;-73
2022/11/10 02:10:27;;;;;;;;;;;;;;;8.65;100.00;96989.00;5066971;28;19957;-73
2022/11/10 02:12:53;;;;;;;;;;;;;;;8.64;100.00;96990.81;5065777;28;19966;-74
2022/11/10 02:15:18;;;;;;;;;;;;;;;8.63;100.00;96999.69;5059530;28;19968;-74
2022/11/10 02:17:45;;;;;;;;;;;;;;;8.62;100.00;96989.41;5066668;28;19954;-74
2022/11/10 02:20:12;;;;;;;;;;;;;;;8.62;100.00;96998.06;5068122;28;19952;-74
2022/11/10 02:22:38;;;;;;;;;;;;;;;8.61;100.00;96993.00;5043053;28;19951;-74
2022/11/10 02:25:05;;;;;;;;;;;;;;;8.58;100.00;96991.59;5063275;28;19954;-74
2022/11/10 02:27:30;;;;;;;;;;;;;;;8.57;100.00;97004.84;5067528;28;19956;-74
2022/11/10 02:29:57;;;;;;;;;;;;;;;8.54;100.00;97001.63;5067501;28;20008;-74
2022/11/10 02:32:23;;;;;;;;;;;;;;;8.51;100.00;97002.00;5066605;28;20319;-74
2022/11/10 02:34:48;;;;;;;;;;;;;;;8.50;100.00;96996.97;5061516;28;19964;-74
2022/11/10 02:37:14;;;;;;;;;;;;;;;8.48;100.00;97006.81;5064894;28;19960;-74
2022/11/10 02:39:40;;;;;;;;;;;;;;;8.47;100.00;97013.03;5061154;28;19958;-74
2022/11/10 02:42:09;;;;;;;;;;;;;;;8.44;100.00;97022.06;5067792;28;20043;-74
2022/11/10 02:44:35;;;;;;;;;;;;;;;8.43;100.00;97025.66;5063801;28;19960;-74
2022/11/10 02:47:02;;;;;;;;;;;;;;;8.38;100.00;97029.81;5064761;28;19950;-74
2022/11/10 02:49:27;;;;;;;;;;;;;;;8.33;100.00;97027.78;5065789;28;19955;-74
2022/11/10 02:51:54;;;;;;;;;;;;;;;8.29;100.00;97026.53;5061249;28;20001;-74
2022/11/10 02:54:20;;;;;;;;;;;;;;;8.26;100.00;97035.56;5062065;28;19955;-74
2022/11/10 02:56:46;;;;;;;;;;;;;;;8.22;100.00;97036.94;5066230;28;19950;-74
2022/11/10 02:59:12;;;;;;;;;;;;;;;8.22;100.00;97052.59;5048480;28;20426;-74
2022/11/10 03:01:37;;;;;;;;;;;;;;;8.20;100.00;97048.56;5059887;28;20004;-74
2022/11/10 03:04:04;;;;;;;;;;;;;;;8.17;100.00;97048.94;5060734;28;19956;-77
2022/11/10 03:06:31;;;;;;;;;;;;;;;8.13;100.00;97046.72;5064175;28;19961;-74
2022/11/10 03:08:57;;;;;;;;;;;;;;;8.09;100.00;97061.13;5044812;28;19983;-74
2022/11/10 03:11:23;;;;;;;;;;;;;;;8.04;100.00;97053.06;5065935;28;19964;-73
2022/11/10 03:13:49;;;;;;;;;;;;;;;8.00;100.00;97054.44;5062330;28;20450;-73
2022/11/10 03:16:15;;;;;;;;;;;;;;;7.97;100.00;97065.22;5060436;28;19966;-74
2022/11/10 03:18:41;;;;;;;;;;;;;;;7.94;100.00;97068.22;5067428;28;19999;-74
2022/11/10 03:21:07;;;;;;;;;;;;;;;7.92;100.00;97075.44;5065321;28;19959;-74
2022/11/10 03:23:34;;;;;;;;;;;;;;;7.88;100.00;97067.16;5063313;28;19963;-74
2022/11/10 03:26:02;;;;;;;;;;;;;;;7.86;100.00;97076.97;5045364;28;20357;-73
2022/11/10 03:28:28;;;;;;;;;;;;;;;7.80;100.00;97075.09;5059846;28;19953;-74
2022/11/10 03:30:54;;;;;;;;;;;;;;;7.77;100.00;97085.09;5066721;28;20367;-74
2022/11/10 03:33:19;;;;;;;;;;;;;;;7.73;100.00;97085.47;5062756;28;19960;-74
2022/11/10 03:35:45;;;;;;;;;;;;;;;7.70;100.00;97085.84;5060707;28;20012;-74
2022/11/10 03:38:11;;;;;;;;;;;;;;;7.66;100.00;97089.00;5059089;28;19987;-74
2022/11/10 03:40:37;;;;;;;;;;;;;;;7.63;100.00;97079.75;5061934;28;20460;-73
2022/11/10 03:43:03;;;;;;;;;;;;;;;7.61;100.00;97096.59;5067946;28;20295;-74
2022/11/10 03:45:29;;;;;;;;;;;;;;;7.56;100.00;97091.91;5065855;28;19949;-74
2022/11/10 03:47:55;;;;;;;;;;;;;;;7.55;100.00;97100.72;5063435;28;19994;-73
2022/11/10 03:50:20;;;;;;;;;;;;;;;7.53;100.00;97110.53;5061240;28;20371;-74
2022/11/10 03:52:46;;;;;;;;;;;;;;;7.51;100.00;97112.50;5041309;28;20027;-73
2022/11/10 03:55:14;;;;;;;;;;;;;;;7.47;100.00;97113.88;5060418;28;19996;-73
2022/11/10 03:57:40;;;;;;;;;;;;;;;7.43;100.00;97108.22;5062798;28;19953;-74
2022/11/10 04:00:07;;;;;;;;;;;;;;;7.39;100.00;97109.56;5058466;28;20000;-73
2022/11/10 04:02:32;;;;;;;;;;;;;;;7.35;100.00;97116.16;5067160;28;19947;-74
2022/11/10 04:10:27;;;;;;;;;;;;;;;7.24;100.00;97129.63;5062215;28;19965;-73
2022/11/10 04:15:43;;;;;;;;;;;;;;;7.20;100.00;97130.97;5067043;28;19971;-74
2022/11/10 04:18:25;;;;;;;;;;;;;;;7.18;100.00;97138.16;5060434;28;19959;-74
2022/11/10 04:20:53;;;;;;;;;;;;;;;7.14;100.00;97142.94;5056094;28;19954;-74
2022/11/10 04:23:35;;;;;;;;;;;;;;;7.10;100.00;97139.88;5062843;28;19955;-73
2022/11/10 04:28:47;;;;;;;;;;;;;;;7.04;100.00;97148.41;5067312;28;19972;-73
2022/11/10 04:31:14;;;;;;;;;;;;;;;7.01;100.00;97148.75;5056238;28;19947;-73
2022/11/10 04:33:40;;;;;;;;;;;;;;;6.99;100.00;97166.41;5062018;28;20303;-73
2022/11/10 04:36:07;;;;;;;;;;;;;;;6.98;100.00;97177.81;5064009;28;19997;-73
2022/11/10 04:38:33;;;;;;;;;;;;;;;6.99;100.00;97184.66;5068597;28;19956;-73
2022/11/10 04:40:59;;;;;;;;;;;;;;;6.99;100.00;97184.66;5063993;28;19948;-74
2022/11/10 04:43:25;;;;;;;;;;;;;;;7.00;100.00;97181.03;5063504;28;19984;-74
2022/11/10 04:45:51;;;;;;;;;;;;;;;6.98;100.00;97179.59;5065923;28;19948;-74
2022/11/10 04:48:17;;;;;;;;;;;;;;;6.94;100.00;97188.78;5066946;28;20006;-74
2022/11/10 04:50:43;;;;;;;;;;;;;;;6.89;100.00;97187.50;5067472;28;19976;-73
2022/11/10 04:53:09;;;;;;;;;;;;;;;6.88;100.00;97185.06;5066998;28;19956;-74
2022/11/10 04:55:38;;;;;;;;;;;;;;;6.83;100.00;97180.38;5063702;28;20032;-73
2022/11/10 04:58:04;;;;;;;;;;;;;;;6.80;100.00;97203.38;5061873;28;19953;-73
2022/11/10 05:00:30;;;;;;;;;;;;;;;6.80;100.00;97213.81;5065476;28;19955;-74
2022/11/10 05:03:00;;;;;;;;;;;;;;;6.79;100.00;97215.59;5069695;28;19954;-74
2022/11/10 05:05:26;;;;;;;;;;;;;;;6.81;100.00;97223.25;5067402;28;19962;-74
2022/11/10 05:07:52;;;;;;;;;;;;;;;6.79;100.00;97217.41;5063638;28;19976;-74
2022/11/10 05:10:18;;;;;;;;;;;;;;;6.78;100.00;97223.59;5064870;28;19957;-73
2022/11/10 05:12:44;;;;;;;;;;;;;;;6.77;100.00;97216.78;5070802;28;19999;-74
2022/11/10 05:15:10;;;;;;;;;;;;;;;6.76;100.00;97223.78;5066376;28;20009;-73
2022/11/10 05:17:36;;;;;;;;;;;;;;;6.72;100.00;97225.13;5058786;28;19974;-74
2022/11/10 05:20:02;;;;;;;;;;;;;;;6.69;100.00;97210.63;5047731;28;20403;-74
2022/11/10 05:22:28;;;;;;;;;;;;;;;6.68;100.00;97229.88;5065073;28;19954;-73
2022/11/10 05:24:54;;;;;;;;;;;;;;;6.67;100.00;97222.22;5065378;28;20429;-73
2022/11/10 05:27:20;;;;;;;;;;;;;;;6.67;100.00;97227.41;5062305;28;20329;-73
2022/11/10 05:29:46;;;;;;;;;;;;;;;6.63;100.00;97221.72;5060850;28;20009;-73
2022/11/10 05:32:12;;;;;;;;;;;;;;;6.62;100.00;97232.34;5069055;28;19960;-74
2022/11/10 05:34:38;;;;;;;;;;;;;;;6.59;100.00;97228.28;5066068;28;19955;-73
2022/11/10 05:37:04;;;;;;;;;;;;;;;6.56;100.00;97241.66;5063431;28;20013;-74
2022/11/10 05:39:29;;;;;;;;;;;;;;;6.53;100.00;97239.41;5064483;28;19951;-74
2022/11/10 05:41:55;;;;;;;;;;;;;;;6.49;100.00;97235.53;5065649;28;20032;-73
2022/11/10 05:44:21;;;;;;;;;;;;;;;6.45;100.00;97235.06;5063079;28;20034;-74
2022/11/10 05:46:47;;;;;;;;;;;;;;;6.42;100.00;97240.59;5067815;28;19954;-74
2022/11/10 05:49:13;;;;;;;;;;;;;;;6.41;100.00;97246.00;5063576;28;19988;-74
2022/11/10 05:51:39;;;;;;;;;;;;;;;6.39;100.00;97253.19;5062162;28;19958;-74
2022/11/10 05:54:05;;;;;;;;;;;;;;;6.36;100.00;97237.88;5064560;28;20375;-74
2022/11/10 05:56:30;;;;;;;;;;;;;;;6.35;100.00;97250.09;5069185;28;20007;-74
2022/11/10 05:58:56;;;;;;;;;;;;;;;6.36;100.00;97256.09;5064359;28;19959;-74
2022/11/10 06:01:22;;;;;;;;;;;;;;;6.38;100.00;97257.56;5060872;28;20420;-73
2022/11/10 06:03:48;;;;;;;;;;;;;;;6.42;100.00;97258.03;5066130;28;20366;-74
2022/11/10 06:06:14;;;;;;;;;;;;;;;6.43;100.00;97259.66;5069687;28;19954;-74
2022/11/10 06:08:40;;;;;;;;;;;;;;;6.44;100.00;97256.88;5064499;28;19972;-74
2022/11/10 06:11:05;;;;;;;;;;;;;;;6.47;100.00;97260.94;5066456;28;19993;-73
2022/11/10 06:13:31;;;;;;;;;;;;;;;6.48;100.00;97271.19;5065810;28;20022;-74
2022/11/10 06:15:57;;;;;;;;;;;;;;;6.48;100.00;97273.78;5063288;28;20017;-74
2022/11/10 06:18:23;;;;;;;;;;;;;;;6.46;100.00;97278.34;5068175;28;20011;-74
2022/11/10 06:20:49;;;;;;;;;;;;;;;6.47;100.00;97300.03;5065750;28;19951;-74
2022/11/10 06:23:15;;;;;;;;;;;;;;;6.43;100.00;97312.59;5069590;28;19951;-74
2022/11/10 06:25:41;;;;;;;;;;;;;;;6.43;100.00;97303.97;5062221;28;19955;-73
2022/11/10 06:28:08;;;;;;;;;;;;;;;6.44;100.00;97313.38;5061963;28;19961;-74
2022/11/10 06:30:34;;;;;;;;;;;;;;;6.46;100.00;97319.25;5067073;28;20316;-74
2022/11/10 06:33:00;;;;;;;;;;;;;;;6.47;100.00;97311.25;5061735;28;19957;-73
2022/11/10 06:35:26;;;;;;;;;;;;;;;6.49;100.00;97306.69;5063429;28;20446;-74
2022/11/10 06:37:57;;;;;;;;;;;;;;;6.50;100.00;97326.53;5065655;28;19965;-73
2022/11/10 06:40:23;;;;;;;;;;;;;;;6.52;100.00;97330.78;5063979;28;19950;-74
2022/11/10 06:42:49;;;;;;;;;;;;;;;6.53;100.00;97348.03;5062878;28;19952;-75
2022/11/10 06:45:14;;;;;;;;;;;;;;;6.54;100.00;97353.09;5066952;28;19953;-73
2022/11/10 06:47:40;;;;;;;;;;;;;;;6.57;100.00;97354.53;5065071;28;19957;-74
2022/11/10 06:50:06;;;;;;;;;;;;;;;6.59;100.00;97369.00;5063503;28;19960;-74
2022/11/10 06:52:32;;;;;;;;;;;;;;;6.62;100.00;97373.09;5064740;28;20315;-73
2022/11/10 06:54:58;;;;;;;;;;;;;;;6.64;100.00;97377.16;5063507;28;19962;-74
2022/11/10 06:57:24;;;;;;;;;;;;;;;6.66;100.00;97369.97;5067294;28;19954;-74
2022/11/10 06:59:50;;;;;;;;;;;;;;;6.68;100.00;97377.63;5063880;28;19962;-74
2022/11/10 07:02:16;;;;;;;;;;;;;;;6.71;100.00;97382.50;5065803;28;19957;-74
2022/11/10 07:04:42;;;;;;;;;;;;;;;6.76;100.00;97397.63;5063682;28;20407;-73
2022/11/10 07:07:08;;;;;;;;;;;;;;;6.81;100.00;97390.13;5063548;28;19957;-74
2022/11/10 07:09:34;;;;;;;;;;;;;;;6.87;100.00;97399.88;5061427;28;19975;-74
2022/11/10 07:12:00;;;;;;;;;;;;;;;6.95;100.00;97401.59;5070041;28;20312;-74
2022/11/10 07:14:25;;;;;;;;;;;;;;;7.04;100.00;97411.84;5062254;28;19979;-74
2022/11/10 07:16:51;;;;;;;;;;;;;;;7.14;100.00;97413.41;5060494;28;20023;-74
2022/11/10 07:19:17;;;;;;;;;;;;;;;7.22;100.00;97408.13;5066934;28;19990;-74
2022/11/10 07:21:43;;;;;;;;;;;;;;;7.31;100.00;97413.13;5069216;28;20051;-74
2022/11/10 07:24:09;;;;;;;;;;;;;;;7.36;100.00;97409.19;5062972;28;19960;-74
2022/11/10 07:26:35;;;;;;;;;;;;;;;7.42;100.00;97417.13;5060555;28;19948;-74
2022/11/10 07:29:00;;;;;;;;;;;;;;;7.56;100.00;97422.59;5062188;28;19959;-75
2022/11/10 07:31:26;;;;;;;;;;;;;;;7.64;100.00;97422.53;5063678;28;20050;-74
2022/11/10 07:33:52;;;;;;;;;;;;;;;7.69;100.00;97430.66;5065215;28;19950;-74
2022/11/10 07:36:18;;;;;;;;;;;;;;;7.79;100.00;97440.84;5065332;28;20053;-74
2022/11/10 07:38:44;;;;;;;;;;;;;;;7.81;100.00;97439.72;5059435;28;19955;-74
2022/11/10 07:41:10;;;;;;;;;;;;;;;7.84;100.00;97444.56;5056247;28;20000;-75
2022/11/10 07:43:36;;;;;;;;;;;;;;;7.86;100.00;97444.41;5061793;28;20444;-73
2022/11/10 07:46:02;;;;;;;;;;;;;;;7.82;100.00;97454.38;5043086;28;19956;-74
2022/11/10 07:48:28;;;;;;;;;;;;;;;7.76;100.00;97455.06;5062602;28;19956;-74
2022/11/10 07:50:54;;;;;;;;;;;;;;;7.59;100.00;97459.59;5069207;28;20044;-74
2022/11/10 07:53:20;;;;;;;;;;;;;;;7.49;100.00;97469.44;5062086;28;19953;-74
2022/11/10 07:55:46;;;;;;;;;;;;;;;7.49;100.00;97475.47;5060545;28;19968;-75
2022/11/10 07:58:13;;;;;;;;;;;;;;;7.53;100.00;97478.56;5063053;28;20338;-74
2022/11/10 08:00:38;;;;;;;;;;;;;;;7.51;100.00;97486.56;5066874;28;20289;-74
2022/11/10 08:03:06;;;;;;;;;;;;;;;7.52;100.00;97482.19;5062831;28;20320;-74
2022/11/10 08:05:32;;;;;;;;;;;;;;;7.51;100.00;97485.75;5057990;28;20322;-74
2022/11/10 08:07:59;;;;;;;;;;;;;;;7.44;100.00;97492.66;5063694;28;19974;-74
2022/11/10 08:10:28;;;;;;;;;;;;;;;7.42;100.00;97494.63;5068129;28;19965;-74
2022/11/10 08:13:01;;;;;;;;;;;;;;;7.44;100.00;97497.88;5070860;28;19953;-74
2022/11/10 08:15:28;;;;;;;;;;;;;;;7.76;100.00;97502.06;5059974;28;19966;-74
2022/11/10 08:17:58;;;;;;;;;;;;;;;8.35;100.00;97504.06;5065904;28;19952;-74
2022/11/10 08:20:23;;;;;;;;;;;;;;;8.92;100.00;97498.28;5067531;28;19948;-74
2022/11/10 08:22:54;;;;;;;;;;;;;;;9.42;100.00;97493.25;5067495;28;19954;-74
2022/11/10 08:25:20;;;;;;;;;;;;;;;9.79;100.00;97503.72;5070654;28;19948;-74
2022/11/10 08:27:46;;;;;;;;;;;;;;;9.87;100.00;97509.63;5060600;28;20322;-74
2022/11/10 08:30:12;;;;;;;;;;;;;;;9.79;100.00;97516.81;5067124;28;19961;-74
2022/11/10 08:32:38;;;;;;;;;;;;;;;9.56;100.00;97525.63;5070123;28;19960;-74
2022/11/10 08:35:04;;;;;;;;;;;;;;;9.30;100.00;97524.34;5044837;28;20429;-74
2022/11/10 08:37:30;;;;;;;;;;;;;;;9.08;100.00;97518.22;5064948;28;19970;-74
2022/11/10 08:39:56;;;;;;;;;;;;;;;8.79;100.00;97523.44;5068928;28;20012;-74
2022/11/10 08:42:21;;;;;;;;;;;;;;;8.64;100.00;97519.00;5070340;28;19953;-77
2022/11/10 08:44:47;;;;;;;;;;;;;;;8.63;100.00;97519.19;5066713;28;19957;-74
2022/11/10 08:47:13;;;;;;;;;;;;;;;8.61;100.00;97529.84;5072701;28;20341;-73
2022/11/10 08:49:39;;;;;;;;;;;;;;;8.80;100.00;97522.44;5063448;28;20037;-74
2022/11/10 08:52:05;;;;;;;;;;;;;;;8.89;100.00;97521.38;5059857;28;19959;-74
2022/11/10 08:54:31;;;;;;;;;;;;;;;8.82;100.00;97530.91;5071735;28;19960;-74
2022/11/10 08:56:56;;;;;;;;;;;;;;;8.69;100.00;97539.38;5065608;28;20013;-74
2022/11/10 08:59:22;;;;;;;;;;;;;;;8.82;100.00;97533.53;5063190;28;20363;-74
2022/11/10 09:01:48;;;;;;;;;;;;;;;9.20;100.00;97542.13;5067450;28;19966;-74
2022/11/10 09:04:14;;;;;;;;;;;;;;;9.32;100.00;97545.91;5068296;28;20003;-74
2022/11/10 09:06:40;;;;;;;;;;;;;;;9.30;100.00;97545.28;5066463;28;20411;-74
2022/11/10 09:09:06;;;;;;;;;;;;;;;9.16;100.00;97547.91;5064726;28;19981;-74
2022/11/10 09:11:32;;;;;;;;;;;;;;;9.02;100.00;97549.53;5067635;28;20018;-74
2022/11/10 09:13:58;;;;;;;;;;;;;;;8.85;100.00;97554.91;5066622;28;20391;-74
2022/11/10 09:16:23;;;;;;;;;;;;;;;8.77;100.00;97557.63;5060223;28;19968;-74
2022/11/10 09:18:49;;;;;;;;;;;;;;;8.80;100.00;97572.13;5064304;28;19950;-74
2022/11/10 09:21:15;;;;;;;;;;;;;;;8.83;100.00;97563.94;5062448;28;19956;-74
2022/11/10 09:23:41;;;;;;;;;;;;;;;8.83;100.00;97566.56;5070088;28;20407;-74
2022/11/10 09:26:07;;;;;;;;;;;;;;;8.76;100.00;97563.84;5066507;28;20026;-74
2022/11/10 09:28:33;;;;;;;;;;;;;;;8.76;100.00;97571.69;5043501;28;19958;-74
2022/11/10 09:30:59;;;;;;;;;;;;;;;8.77;100.00;97578.53;5068478;28;20037;-74
2022/11/10 09:33:24;;;;;;;;;;;;;;;8.73;100.00;97577.28;5066764;28;19958;-74
2022/11/10 09:35:55;;;;;;;;;;;;;;;8.69;100.00;97578.63;5063598;28;20480;-74
2022/11/10 09:38:20;;;;;;;;;;;;;;;8.71;100.00;97587.94;5060714;28;19982;-74
2022/11/10 09:40:49;;;;;;;;;;;;;;;8.75;100.00;97585.75;5063655;28;20410;-74
2022/11/10 09:43:18;;;;;;;;;;;;;;;8.83;100.00;97585.69;5064737;28;19954;-74
2022/11/10 09:45:45;;;;;;;;;;;;;;;8.90;100.00;97586.59;5061586;28;19960;-73
2022/11/10 09:48:18;;;;;;;;;;;;;;;8.99;100.00;97592.56;5070955;28;20331;-74
2022/11/10 09:50:57;;;;;;;;;;;;;;;8.97;100.00;97593.75;5064446;28;19974;-74
2022/11/10 09:53:43;;;;;;;;;;;;;;;9.02;100.00;97602.66;5064464;28;19947;-74
2022/11/10 09:56:13;;;;;;;;;;;;;;;9.20;100.00;97602.31;5063535;28;19972;-74
2022/11/10 09:58:41;;;;;;;;;;;;;;;9.45;100.00;97610.72;5061665;28;19954;-75
2022/11/10 10:01:14;;;;;;;;;;;;;;;9.69;100.00;97608.78;5058933;28;19964;-74
2022/11/10 10:03:45;;;;;;;;;;;;;;;9.86;100.00;97614.63;5067719;28;19958;-73
2022/11/10 10:06:14;;;;;;;;;;;;;;;9.92;100.00;97614.69;5068449;28;20438;-74
2022/11/10 10:08:51;;;;;;;;;;;;;;;9.94;100.00;97607.47;5058249;28;19991;-74
2022/11/10 10:11:26;;;;;;;;;;;;;;;9.94;100.00;97620.56;5061899;28;19973;-74
2022/11/10 10:13:58;;;;;;;;;;;;;;;10.03;100.00;97612.59;5065098;28;19949;-74
2022/11/10 10:16:35;;;;;;;;;;;;;;;10.27;100.00;97620.09;5067755;28;19990;-74
2022/11/10 10:19:19;;;;;;;;;;;;;;;10.55;100.00;97622.00;5065859;28;19962;-74
2022/11/10 10:21:45;;;;;;;;;;;;;;;10.83;100.00;97610.72;5060866;28;19953;-74
2022/11/10 10:24:13;;;;;;;;;;;;;;;10.99;100.00;97607.81;5060791;28;20046;-73
2022/11/10 10:26:49;;;;;;;;;;;;;;;11.10;100.00;97609.91;5069552;28;19967;-74
2022/11/10 10:29:18;;;;;;;;;;;;;;;11.28;100.00;97606.78;5062381;28;20336;-74
2022/11/10 10:31:49;;;;;;;;;;;;;;;11.40;100.00;97603.59;5060554;28;19959;-73
2022/11/10 10:34:16;;;;;;;;;;;;;;;11.45;100.00;97604.66;5060942;28;19955;-74
2022/11/10 10:36:43;;;;;;;;;;;;;;;11.51;100.00;97592.56;5060886;28;19971;-74
2022/11/10 10:39:14;;;;;;;;;;;;;;;11.53;100.00;97601.06;5069098;28;19971;-74
2022/11/10 10:41:42;;;;;;;;;;;;;;;11.64;100.00;97594.44;5067512;28;19951;-74
2022/11/10 10:44:10;;;;;;;;;;;;;;;11.72;100.00;97604.78;5065533;28;20403;-76
2022/11/10 10:46:46;;;;;;;;;;;;;;;11.76;100.00;97601.56;5069173;28;19953;-74
2022/11/10 10:49:20;;;;;;;;;;;;;;;11.89;100.00;97610.53;5069815;28;19945;-74
2022/11/10 10:51:46;;;;;;;;;;;;;;;11.97;100.00;97605.09;5060409;28;19945;-74
2022/11/10 10:54:21;;;;;;;;;;;;;;;12.05;100.00;97604.09;5065036;28;19952;-74
2022/11/10 10:56:48;;;;;;;;;;;;;;;12.13;100.00;97596.81;5065042;28;20324;-74
2022/11/10 10:59:22;;;;;;;;;;;;;;;12.17;100.00;97603.31;5062857;28;19954;-74
2022/11/10 11:01:52;;;;;;;;;;;;;;;12.22;100.00;97601.91;5059258;28;20427;-74
2022/11/10 11:04:35;;;;;;;;;;;;;;;12.31;100.00;97598.88;5060626;28;19984;-74
2022/11/10 11:07:03;;;;;;;;;;;;;;;12.49;100.00;97586.97;5064630;28;19961;-74
2022/11/10 11:09:38;;;;;;;;;;;;;;;12.53;98.62;97583.72;5065659;28;19977;-75
2022/11/10 11:12:12;;;;;;;;;;;;;;;12.59;98.84;97571.59;5062787;28;19969;-75
2022/11/10 11:14:38;;;;;;;;;;;;;;;12.66;98.33;97567.13;5054934;28;19963;-74
2022/11/10 11:17:18;;;;;;;;;;;;;;;12.71;96.07;97569.16;5059159;28;20440;-74
2022/11/10 11:19:44;;;;;;;;;;;;;;;12.76;96.74;97593.03;5052932;28;19956;-74
2022/11/10 11:22:09;;;;;;;;;;;;;;;12.88;97.39;97601.13;5063042;28;20435;-73
2022/11/10 11:24:54;;;;;;;;;;;;;;;12.91;90.93;97575.19;5046688;28;19961;-74
2022/11/10 11:27:29;;;;;;;;;;;;;;;12.90;89.29;97549.88;5063955;28;19949;-74
2022/11/10 11:30:12;;;;;;;;;;;;;;;12.90;90.37;97563.06;5061634;28;19952;-73
2022/11/10 11:32:53;;;;;;;;;;;;;;;12.95;92.53;97580.88;5039073;28;20466;-74
2022/11/10 11:35:37;;;;;;;;;;;;;;;12.99;93.74;97585.50;5060370;28;20442;-73
2022/11/10 11:38:06;;;;;;;;;;;;;;;13.04;92.64;97584.09;5051659;28;19972;-73
2022/11/10 11:40:42;;;;;;;;;;;;;;;13.08;92.36;97587.94;5056520;28;19965;-73
2022/11/10 11:43:26;;;;;;;;;;;;;;;13.05;90.31;97576.00;5064565;28;19956;-73
2022/11/10 11:46:10;;;;;;;;;;;;;;;13.00;87.95;97571.34;5054294;28;19955;-73
2022/11/10 11:48:36;;;;;;;;;;;;;;;13.01;86.99;97556.34;5065356;28;20300;-73
2022/11/10 11:51:14;;;;;;;;;;;;;;;13.02;83.67;97536.91;5069623;28;19950;-73
2022/11/10 11:53:59;;;;;;;;;;;;;;;13.00;85.89;97552.91;5069233;28;20396;-73
2022/11/10 11:56:27;;;;;;;;;;;;;;;13.08;87.76;97569.50;5069472;28;19965;-73
2022/11/10 11:59:11;;;;;;;;;;;;;;;13.08;83.25;97525.56;5071727;28;19959;-73
2022/11/10 12:01:37;;;;;;;;;;;;;;;13.19;89.27;97577.59;5047673;28;19965;-73
2022/11/10 12:04:21;;;;;;;;;;;;;;;13.26;89.15;97574.94;5071756;28;20417;-73
2022/11/10 12:06:47;;;;;;;;;;;;;;;13.26;87.17;97566.22;5074184;28;19967;-73
2022/11/10 12:09:31;;;;;;;;;;;;;;;13.18;85.03;97548.81;5067762;28;20379;-73
2022/11/10 12:11:57;;;;;;;;;;;;;;;13.14;88.67;97571.31;5066428;28;20329;-73
2022/11/10 12:14:26;;;;;;;;;;;;;;;13.15;86.06;97554.50;5072035;28;20691;-74
2022/11/10 12:17:07;;;;;;;;;;;;;;;13.16;85.77;97548.22;5072406;28;19982;-73
2022/11/10 12:19:43;;;;;;;;;;;;;;;13.16;85.85;97556.91;5070828;28;19957;-74
2022/11/10 12:22:23;;;;;;;;;;;;;;;13.11;83.52;97533.03;5069381;28;21523;-73
2022/11/10 12:24:49;;;;;;;;;;;;;;;13.14;81.61;97519.44;5049149;28;19956;-73
2022/11/10 12:27:18;;;;;;;;;;;;;;;13.15;83.23;97530.81;5069558;28;19962;-73
2022/11/10 12:29:51;;;;;;;;;;;;;;;13.16;83.34;97535.84;5074270;28;19962;-73
2022/11/10 12:32:29;;;;;;;;;;;;;;;13.13;77.21;97491.50;5069890;28;19951;-74
2022/11/10 12:35:06;;;;;;;;;;;;;;;13.12;82.21;97537.28;5070660;28;20436;-73
2022/11/10 12:37:35;;;;;;;;;;;;;;;13.17;82.81;97529.56;5064175;28;19962;-73
2022/11/10 12:40:13;;;;;;;;;;;;;;;13.20;75.32;97463.28;5064669;28;19969;-73
2022/11/10 12:42:40;;;;;;;;;;;;;;;13.17;70.34;97423.41;5056773;28;19964;-73
2022/11/10 12:45:15;;;;;;;;;;;;;;;13.18;79.22;97506.66;5066750;28;19965;-73
2022/11/10 12:47:42;;;;;;;;;;;;;;;13.17;75.01;97469.00;5066663;28;19956;-73
2022/11/10 12:50:14;;;;;;;;;;;;;;;13.15;74.72;97460.50;5065633;28;19961;-73
2022/11/10 12:52:50;;;;;;;;;;;;;;;13.11;71.28;97443.47;5073121;28;19953;-73
2022/11/10 12:55:18;;;;;;;;;;;;;;;13.13;76.08;97490.69;5070122;28;19954;-73
2022/11/10 12:57:44;;;;;;;;;;;;;;;13.16;74.84;97475.25;5067358;28;19965;-73
2022/11/10 13:00:16;;;;;;;;;;;;;;;13.11;73.48;97467.19;5060190;28;19953;-73
2022/11/10 13:02:44;;;;;;;;;;;;;;;13.11;72.90;97461.91;5068746;28;20337;-73
2022/11/10 13:05:10;;;;;;;;;;;;;;;13.14;75.19;97477.28;5069969;28;19966;-73